Time;durP1;ratioP1;P1;durP2;ratioP2;P2;SDS_P1;SDS_P2;PMS_P1;PMS_P2;Temp;Humidity;BMP_temperature;BMP_pressure;BME280_temperature;BME280_humidity;BME280_pressure;Samples;Min_cycle;Max_cycle;Signal;HPM_P1;HPM_P2
2023/10/06 00:00:43;;;;;;;5.05;3.22;;;;;;;14.36;44.25;102196.47;5035271;28;20060;-85
2023/10/06 00:03:13;;;;;;;5.53;2.58;;;;;;;14.34;43.64;102196.63;5034868;28;21138;-85
2023/10/06 00:05:44;;;;;;;6.95;3.00;;;;;;;14.32;43.97;102198.63;5049446;28;20468;-85
2023/10/06 00:08:16;;;;;;;6.05;3.10;;;;;;;14.33;44.12;102193.97;5034056;28;20060;-84
2023/10/06 00:10:51;;;;;;;5.80;3.00;;;;;;;14.34;44.34;102198.50;5035538;28;20048;-85
2023/10/06 00:13:29;;;;;;;5.95;2.58;;;;;;;14.32;44.40;102203.25;5034275;28;20527;-85
2023/10/06 00:16:19;;;;;;;4.57;2.60;;;;;;;14.26;44.19;102210.16;5032042;28;20052;-84
2023/10/06 00:18:47;;;;;;;5.38;2.88;;;;;;;14.27;43.96;102213.78;5031057;28;20049;-82
2023/10/06 00:21:15;;;;;;;6.82;3.25;;;;;;;14.27;43.92;102208.25;5036817;28;20303;-84
2023/10/06 00:23:44;;;;;;;5.80;2.95;;;;;;;14.26;44.14;102201.00;5031029;28;20053;-83
2023/10/06 00:26:16;;;;;;;6.35;3.42;;;;;;;14.25;43.79;102211.13;5033289;28;20065;-83
2023/10/06 00:28:49;;;;;;;6.93;3.40;;;;;;;14.25;44.25;102205.63;5034773;28;20104;-83
2023/10/06 00:31:18;;;;;;;6.05;2.97;;;;;;;14.23;43.84;102204.88;5035493;28;20045;-83
2023/10/06 00:33:45;;;;;;;5.20;3.25;;;;;;;14.22;44.50;102210.50;5037078;28;20147;-83
2023/10/06 00:36:14;;;;;;;5.93;3.10;;;;;;;14.20;44.40;102204.22;5034764;28;20060;-84
2023/10/06 00:38:45;;;;;;;5.22;3.30;;;;;;;14.19;44.11;102202.50;5050151;28;20548;-84
2023/10/06 00:41:14;;;;;;;4.90;3.10;;;;;;;14.17;43.99;102208.13;5037301;28;20053;-85
2023/10/06 00:43:44;;;;;;;6.45;3.00;;;;;;;14.17;44.08;102213.66;5038695;28;20338;-83
2023/10/06 00:46:16;;;;;;;6.53;3.17;;;;;;;14.17;44.37;102210.88;5038692;28;20057;-83
2023/10/06 00:48:45;;;;;;;6.20;3.13;;;;;;;14.11;44.40;102205.84;5053682;28;20422;-83
2023/10/06 00:51:19;;;;;;;5.20;2.60;;;;;;;14.12;44.06;102201.22;5035807;28;20740;-83
2023/10/06 00:53:51;;;;;;;5.20;3.05;;;;;;;14.08;44.36;102200.63;5034120;28;20045;-82
2023/10/06 00:56:23;;;;;;;7.00;3.15;;;;;;;14.07;44.05;102201.63;5039573;28;20083;-83
2023/10/06 00:58:51;;;;;;;5.05;2.70;;;;;;;14.05;44.42;102197.22;5037996;28;20176;-83
2023/10/06 01:01:22;;;;;;;6.70;3.10;;;;;;;14.06;44.67;102190.72;5038071;28;20076;-83
2023/10/06 01:04:00;;;;;;;7.35;3.55;;;;;;;14.02;44.03;102182.72;5040414;28;20060;-83
2023/10/06 01:06:35;;;;;;;6.60;3.20;;;;;;;14.00;44.25;102194.88;5038068;28;20101;-84
2023/10/06 01:09:14;;;;;;;6.75;2.92;;;;;;;13.99;44.55;102185.72;5062238;28;20056;-85
2023/10/06 01:11:45;;;;;;;5.65;3.25;;;;;;;13.97;44.75;102184.09;5046854;28;20049;-85
2023/10/06 01:14:21;;;;;;;5.18;3.10;;;;;;;13.93;44.49;102177.97;5043703;28;20155;-84
2023/10/06 01:16:52;;;;;;;4.65;2.70;;;;;;;13.93;44.53;102171.59;5057244;28;20127;-85
2023/10/06 01:19:26;;;;;;;5.10;2.90;;;;;;;13.91;44.37;102174.47;5042247;28;20084;-84
2023/10/06 01:21:56;;;;;;;4.80;3.10;;;;;;;13.91;44.82;102168.09;5061502;28;20044;-84
2023/10/06 01:24:26;;;;;;;5.28;3.13;;;;;;;13.90;44.57;102169.09;5053510;28;20044;-85
2023/10/06 01:26:58;;;;;;;6.28;3.10;;;;;;;13.88;44.48;102163.69;5048117;28;20750;-85
2023/10/06 01:29:30;;;;;;;6.10;3.30;;;;;;;13.84;44.81;102159.47;5057249;28;20437;-85
2023/10/06 01:31:58;;;;;;;5.53;3.50;;;;;;;13.85;44.50;102165.84;5063593;28;20372;-84
2023/10/06 01:34:27;;;;;;;5.70;3.33;;;;;;;13.83;44.82;102156.81;5051914;28;20046;-84
2023/10/06 01:36:56;;;;;;;5.90;3.20;;;;;;;13.82;44.91;102155.06;5045985;28;20817;-83
2023/10/06 01:39:26;;;;;;;4.57;3.00;;;;;;;13.82;44.85;102155.06;5031707;28;20053;-83
2023/10/06 01:41:55;;;;;;;5.95;2.85;;;;;;;13.84;44.82;102148.44;5027289;28;20049;-84
2023/10/06 01:44:23;;;;;;;7.05;3.05;;;;;;;13.82;44.88;102147.69;5048186;28;20736;-84
2023/10/06 01:46:54;;;;;;;6.72;3.03;;;;;;;13.83;45.06;102156.81;5043684;28;20064;-83
2023/10/06 01:49:22;;;;;;;5.75;3.10;;;;;;;13.82;44.96;102144.94;5031822;28;20065;-83
2023/10/06 01:51:51;;;;;;;5.97;2.75;;;;;;;13.82;44.77;102146.81;5027807;28;20402;-83
2023/10/06 01:54:35;;;;;;;6.30;3.22;;;;;;;13.80;44.62;102140.56;5032961;28;20441;-83
2023/10/06 01:57:06;;;;;;;8.65;3.30;;;;;;;13.81;44.79;102142.31;5023797;28;20046;-84
2023/10/06 01:59:35;;;;;;;5.45;3.15;;;;;;;13.78;45.05;102140.66;5027748;28;20136;-84
2023/10/06 02:02:07;;;;;;;6.07;2.95;;;;;;;13.78;44.77;102142.53;5034286;28;20041;-84
2023/10/06 02:04:44;;;;;;;;;;;;;;;13.49;45.79;102142.13;5030485;28;20556;-83
2023/10/06 02:07:13;;;;;;;4.72;2.75;;;;;;;13.70;44.57;102151.41;5047426;28;19995;-84
2023/10/06 02:09:41;;;;;;;5.28;2.80;;;;;;;13.73;45.00;102153.94;5031572;28;20041;-84
2023/10/06 02:12:12;;;;;;;5.78;3.30;;;;;;;13.74;44.76;102144.69;5026766;28;20129;-84
2023/10/06 02:14:41;;;;;;;4.95;2.90;;;;;;;13.73;44.69;102144.81;5031931;28;20056;-83
2023/10/06 02:17:11;;;;;;;5.13;2.90;;;;;;;13.74;44.76;102138.31;5030875;28;20055;-84
2023/10/06 02:19:42;;;;;;;6.40;3.17;;;;;;;13.76;44.99;102133.56;5028659;28;20132;-84
2023/10/06 02:22:11;;;;;;;5.82;2.80;;;;;;;13.74;45.17;102139.19;5030869;28;20410;-83
2023/10/06 02:24:39;;;;;;;5.78;3.08;;;;;;;13.76;44.92;102142.69;5031637;28;20049;-82
2023/10/06 02:27:09;;;;;;;6.35;3.53;;;;;;;13.77;45.13;102140.81;5047368;28;20049;-82
2023/10/06 02:29:40;;;;;;;4.88;2.80;;;;;;;13.77;45.29;102144.44;5038850;28;20053;-84
2023/10/06 02:32:08;;;;;;;5.57;2.90;;;;;;;13.76;45.07;102133.56;5028972;28;20053;-85
2023/10/06 02:34:38;;;;;;;5.35;2.78;;;;;;;13.79;44.85;102136.03;5026669;28;20045;-83
2023/10/06 02:37:08;;;;;;;4.95;2.70;;;;;;;13.78;45.21;102132.41;5046208;28;20045;-84
2023/10/06 02:39:38;;;;;;;4.63;2.90;;;;;;;13.77;44.71;102133.44;5031944;28;20045;-84
2023/10/06 02:42:09;;;;;;;5.72;2.63;;;;;;;13.77;44.64;102136.19;5033652;28;20056;-84
2023/10/06 02:44:38;;;;;;;5.15;2.95;;;;;;;13.76;44.73;102133.56;5058493;28;20049;-84
2023/10/06 02:47:09;;;;;;;7.15;3.03;;;;;;;13.74;45.07;102132.81;5050927;28;20133;-83
2023/10/06 02:49:40;;;;;;;6.00;3.10;;;;;;;13.71;44.91;102136.66;5049452;28;20670;-84
2023/10/06 02:52:19;;;;;;;5.18;2.97;;;;;;;13.71;44.76;102136.66;5031612;28;20490;-84
2023/10/06 02:54:56;;;;;;;5.30;2.97;;;;;;;13.69;44.76;102133.19;5049882;28;20045;-84
2023/10/06 02:57:26;;;;;;;5.32;3.00;;;;;;;13.67;44.96;102137.94;5033740;28;20417;-83
2023/10/06 03:00:17;;;;;;;5.60;3.10;;;;;;;13.68;44.93;102133.31;5035506;28;20095;-84
2023/10/06 03:02:46;;;;;;;4.50;2.80;;;;;;;13.68;44.69;102127.81;5053166;28;20041;-84
2023/10/06 03:05:15;;;;;;;5.97;2.88;;;;;;;13.67;45.06;102128.81;5043276;28;20048;-85
2023/10/06 03:07:45;;;;;;;5.90;3.05;;;;;;;13.66;44.85;102127.03;5050649;28;20069;-85
2023/10/06 03:10:17;;;;;;;4.40;2.70;;;;;;;13.66;44.88;102127.03;5053264;28;20064;-85
2023/10/06 03:12:46;;;;;;;4.80;2.70;;;;;;;13.60;45.21;102129.31;5059237;28;20624;-84
2023/10/06 03:15:29;;;;;;;4.82;2.80;;;;;;;13.63;45.13;102136.41;5031702;28;20037;-84
2023/10/06 03:18:00;;;;;;;4.97;2.97;;;;;;;13.63;45.08;102134.53;5028246;28;20045;-84
2023/10/06 03:20:40;;;;;;;6.05;3.30;;;;;;;13.61;45.26;102142.03;5030076;28;20063;-83
2023/10/06 03:23:15;;;;;;;5.38;3.00;;;;;;;13.61;45.03;102135.69;5033917;28;20045;-83
2023/10/06 03:25:49;;;;;;;6.50;3.17;;;;;;;13.60;45.48;102140.31;5048395;28;20059;-84
2023/10/06 03:28:18;;;;;;;5.20;2.88;;;;;;;13.60;44.88;102133.94;5031991;28;20076;-83
2023/10/06 03:30:49;;;;;;;5.03;2.97;;;;;;;13.58;44.97;102136.78;5034924;28;20055;-84
2023/10/06 03:33:20;;;;;;;5.63;2.92;;;;;;;13.60;45.41;102131.19;5038294;28;20057;-84
2023/10/06 03:35:48;;;;;;;5.03;2.65;;;;;;;13.59;44.90;102132.16;5038736;28;20793;-84
2023/10/06 03:38:32;;;;;;;6.07;2.80;;;;;;;13.59;44.86;102138.56;5036379;28;20749;-83
2023/10/06 03:41:13;;;;;;;5.82;2.67;;;;;;;13.59;45.24;102148.69;5033335;28;20057;-84
2023/10/06 03:43:47;;;;;;;4.45;3.00;;;;;;;13.58;45.37;102145.03;5036317;28;20045;-84
2023/10/06 03:46:18;;;;;;;4.75;2.80;;;;;;;13.57;45.31;102137.78;5033659;28;20053;-83
2023/10/06 03:48:49;;;;;;;4.55;2.70;;;;;;;13.57;45.15;102134.16;5033797;28;20048;-84
2023/10/06 03:51:18;;;;;;;5.47;3.10;;;;;;;13.55;45.23;102134.25;5054192;28;20051;-84
2023/10/06 03:53:48;;;;;;;5.05;2.90;;;;;;;13.54;45.19;102132.50;5045728;28;20623;-84
2023/10/06 03:56:17;;;;;;;5.00;2.83;;;;;;;13.54;45.20;102131.59;5049739;28;20570;-84
2023/10/06 03:58:45;;;;;;;5.80;2.70;;;;;;;13.55;45.10;102138.88;5038765;28;20080;-84
2023/10/06 04:01:19;;;;;;;5.25;2.80;;;;;;;13.55;45.32;102139.75;5033494;28;20049;-84
2023/10/06 04:03:49;;;;;;;4.82;2.60;;;;;;;13.56;45.54;102138.78;5050160;28;20041;-83
2023/10/06 04:06:17;;;;;;;5.18;2.60;;;;;;;13.54;45.12;102143.50;5033899;28;20045;-82
2023/10/06 04:08:46;;;;;;;5.75;2.80;;;;;;;13.53;44.94;102147.22;5051901;28;20124;-84
2023/10/06 04:11:15;;;;;;;5.40;2.88;;;;;;;13.54;45.49;102143.50;5036268;28;20063;-84
2023/10/06 04:13:43;;;;;;;7.07;3.33;;;;;;;13.52;45.42;102141.88;5037208;28;20053;-83
2023/10/06 04:16:13;;;;;;;5.25;2.53;;;;;;;13.53;45.37;102138.13;5056221;28;20174;-84
2023/10/06 04:18:47;;;;;;;5.85;2.72;;;;;;;13.52;45.25;102137.25;5045378;28;20079;-84
2023/10/06 04:21:18;;;;;;;4.95;2.63;;;;;;;13.51;45.19;102123.63;5039835;28;20061;-84
2023/10/06 04:23:46;;;;;;;4.93;2.47;;;;;;;13.49;45.32;102129.25;5051244;28;20400;-83
2023/10/06 04:26:15;;;;;;;5.60;2.83;;;;;;;13.47;45.10;102128.47;5032612;28;20049;-83
2023/10/06 04:28:46;;;;;;;6.07;2.78;;;;;;;13.44;45.39;102126.00;5031193;28;20524;-84
2023/10/06 04:31:16;;;;;;;4.82;2.85;;;;;;;13.41;45.07;102119.84;5045932;28;20061;-84
2023/10/06 04:33:44;;;;;;;5.25;2.60;;;;;;;13.38;45.48;102123.72;5033890;28;20051;-84
2023/10/06 04:36:20;;;;;;;5.78;2.83;;;;;;;13.37;45.50;102113.69;5033826;28;20057;-83
2023/10/06 04:38:52;;;;;;;4.72;2.60;;;;;;;13.36;45.53;102113.84;5033277;28;20072;-83
2023/10/06 04:41:22;;;;;;;5.47;2.70;;;;;;;13.32;44.98;102102.22;5034652;28;20056;-84
2023/10/06 04:43:51;;;;;;;5.35;2.65;;;;;;;13.32;45.41;102104.09;5040262;28;20116;-84
2023/10/06 04:46:20;;;;;;;5.68;3.03;;;;;;;13.30;45.19;102106.94;5062706;28;20084;-84
2023/10/06 04:48:49;;;;;;;6.13;2.83;;;;;;;13.30;45.46;102089.56;5053253;28;20060;-84
2023/10/06 04:51:17;;;;;;;4.97;2.67;;;;;;;13.28;45.63;102086.97;5071343;28;20347;-84
2023/10/06 04:53:47;;;;;;;4.18;2.50;;;;;;;13.28;45.44;102094.34;5033866;28;20068;-84
2023/10/06 04:56:16;;;;;;;5.95;2.78;;;;;;;13.28;45.63;102092.47;5031939;28;20118;-82
2023/10/06 04:58:45;;;;;;;4.95;2.80;;;;;;;13.27;45.46;102095.34;5034149;28;20044;-83
2023/10/06 05:01:13;;;;;;;5.07;3.08;;;;;;;13.26;45.61;102097.22;5050054;28;20398;-85
2023/10/06 05:03:44;;;;;;;4.95;2.80;;;;;;;13.25;45.79;102099.09;5035171;28;20045;-85
2023/10/06 05:06:16;;;;;;;5.07;2.97;;;;;;;13.25;45.40;102099.09;5031533;28;20072;-85
2023/10/06 05:08:46;;;;;;;5.65;2.78;;;;;;;13.23;45.87;102097.44;5027001;28;20045;-84
2023/10/06 05:11:18;;;;;;;5.28;2.55;;;;;;;13.28;45.29;102091.59;5032256;28;20055;-84
2023/10/06 05:13:49;;;;;;;4.88;2.60;;;;;;;13.26;45.53;102094.47;5031249;28;20079;-84
2023/10/06 05:16:22;;;;;;;5.45;3.20;;;;;;;13.25;45.40;102090.84;5046356;28;20049;-85
2023/10/06 05:18:53;;;;;;;4.75;2.63;;;;;;;13.24;45.54;102086.31;5047367;28;20143;-85
2023/10/06 05:21:21;;;;;;;4.82;2.70;;;;;;;13.21;45.58;102091.19;5045262;28;20336;-84
2023/10/06 05:23:49;;;;;;;4.90;2.85;;;;;;;13.21;45.52;102093.94;5034126;28;20073;-84
2023/10/06 05:26:20;;;;;;;6.00;2.70;;;;;;;13.20;45.54;102087.56;5035619;28;20049;-85
2023/10/06 05:28:50;;;;;;;4.90;2.92;;;;;;;13.17;45.71;102085.06;5050330;28;20056;-85
2023/10/06 05:31:18;;;;;;;5.07;3.38;;;;;;;13.13;45.79;102077.16;5033681;28;20656;-84
2023/10/06 05:33:46;;;;;;;5.28;2.92;;;;;;;13.14;45.74;102081.66;5030417;28;20140;-84
2023/10/06 05:36:15;;;;;;;4.68;2.40;;;;;;;13.14;45.67;102085.31;5033480;28;20060;-84
2023/10/06 05:38:49;;;;;;;4.20;2.72;;;;;;;13.12;45.94;102084.53;5023809;28;20565;-85
2023/10/06 05:41:19;;;;;;;5.55;3.08;;;;;;;13.13;46.09;102083.53;5020050;28;20114;-84
2023/10/06 05:43:48;;;;;;;4.95;2.60;;;;;;;13.15;45.93;102083.44;5020223;28;20060;-84
2023/10/06 05:46:16;;;;;;;4.82;2.53;;;;;;;13.14;45.68;102073.44;5019997;28;20613;-85
2023/10/06 05:48:44;;;;;;;5.18;2.47;;;;;;;13.15;45.97;102072.44;5020617;28;20057;-85
2023/10/06 05:51:18;;;;;;;5.45;3.08;;;;;;;13.14;45.67;102079.81;5026151;28;20064;-84
2023/10/06 05:53:48;;;;;;;5.28;2.78;;;;;;;13.16;45.70;102074.19;5049426;28;20137;-85
2023/10/06 05:56:18;;;;;;;9.20;3.10;;;;;;;13.15;46.04;102077.94;5034998;28;20057;-85
2023/10/06 05:58:47;;;;;;;5.65;2.63;;;;;;;13.17;45.90;102089.69;5035936;28;20045;-86
2023/10/06 06:01:18;;;;;;;6.32;2.90;;;;;;;13.16;46.13;102079.69;5015880;28;20040;-85
2023/10/06 06:03:49;;;;;;;5.63;2.85;;;;;;;13.17;46.18;102095.19;5017509;28;20061;-84
2023/10/06 06:06:22;;;;;;;6.57;2.97;;;;;;;13.17;46.36;102093.31;5017960;28;20053;-83
2023/10/06 06:08:51;;;;;;;7.72;2.97;;;;;;;13.18;45.91;102097.81;5017734;28;20050;-84
2023/10/06 06:11:20;;;;;;;5.28;3.05;;;;;;;13.19;46.47;102101.44;5018983;28;20537;-85
2023/10/06 06:13:50;;;;;;;6.13;2.95;;;;;;;13.21;46.09;102099.44;5020868;28;20213;-84
2023/10/06 06:16:44;;;;;;;4.47;2.60;;;;;;;13.21;46.29;102107.66;5015180;28;20639;-85
2023/10/06 06:19:12;;;;;;;5.10;2.65;;;;;;;13.21;46.24;102108.56;5020510;28;20105;-86
2023/10/06 06:21:40;;;;;;;4.90;2.83;;;;;;;13.22;46.09;102103.94;5026844;28;20055;-85
2023/10/06 06:24:09;;;;;;;5.47;2.75;;;;;;;13.25;46.44;102107.31;5030986;28;20045;-84
2023/10/06 06:26:44;;;;;;;5.65;2.90;;;;;;;13.28;46.33;102117.22;5047624;28;21268;-83
2023/10/06 06:29:15;;;;;;;5.63;3.40;;;;;;;13.29;46.50;102107.94;5047856;28;20049;-85
2023/10/06 06:31:44;;;;;;;5.72;3.28;;;;;;;13.32;46.79;102120.56;5037956;28;20083;-83
2023/10/06 06:34:13;;;;;;;5.40;2.70;;;;;;;13.37;47.35;102127.47;5027130;28;20619;-82
2023/10/06 06:36:41;;;;;;;10.10;3.28;;;;;;;13.44;47.99;102123.25;5044296;28;20530;-83
2023/10/06 06:39:10;;;;;;;4.75;2.75;;;;;;;13.52;48.08;102125.38;5029948;28;20111;-83
2023/10/06 06:41:38;;;;;;;4.63;2.70;;;;;;;13.64;48.62;102140.91;5026467;28;21174;-84
2023/10/06 06:44:06;;;;;;;5.68;2.60;;;;;;;13.77;48.79;102138.94;5029607;28;20099;-82
2023/10/06 06:46:36;;;;;;;4.38;2.53;;;;;;;13.93;48.58;102133.94;5034513;28;20038;-83
2023/10/06 06:49:06;;;;;;;4.82;2.70;;;;;;;14.10;48.91;102138.06;5052901;28;20576;-81
2023/10/06 06:51:37;;;;;;;7.07;2.67;;;;;;;14.28;48.90;102139.28;5034469;28;21245;-83
2023/10/06 06:54:06;;;;;;;5.32;2.95;;;;;;;14.47;48.46;102138.66;5053955;28;20065;-82
2023/10/06 06:56:35;;;;;;;5.50;2.55;;;;;;;14.66;47.90;102137.97;5035459;28;20064;-82
2023/10/06 06:59:03;;;;;;;5.60;2.88;;;;;;;14.82;47.04;102130.16;5038497;28;20046;-83
2023/10/06 07:01:33;;;;;;;5.22;2.60;;;;;;;14.95;46.21;102127.19;5037028;28;20588;-83
2023/10/06 07:04:03;;;;;;;4.30;2.60;;;;;;;15.04;45.79;102130.03;5037652;28;20573;-82
2023/10/06 07:06:31;;;;;;;6.35;2.97;;;;;;;15.08;45.29;102128.78;5034918;28;20124;-83
2023/10/06 07:09:00;;;;;;;4.70;2.55;;;;;;;15.10;45.03;102129.50;5036177;28;20061;-82
2023/10/06 07:11:28;;;;;;;5.95;2.70;;;;;;;15.10;44.65;102135.03;5035694;28;20045;-82
2023/10/06 07:13:56;;;;;;;5.25;2.70;;;;;;;15.08;44.61;102130.66;5040721;28;20068;-83
2023/10/06 07:16:25;;;;;;;5.60;2.58;;;;;;;15.06;44.92;102132.69;5042708;28;20049;-82
2023/10/06 07:18:53;;;;;;;4.40;2.60;;;;;;;15.03;44.73;102142.06;5029121;28;20550;-83
2023/10/06 07:21:23;;;;;;;6.18;2.58;;;;;;;15.03;44.18;102132.94;5047694;28;20052;-82
2023/10/06 07:23:54;;;;;;;5.43;2.67;;;;;;;14.96;44.40;102132.59;5034862;28;20795;-83
2023/10/06 07:26:23;;;;;;;5.60;2.75;;;;;;;14.92;44.23;102133.00;5047033;28;20041;-82
2023/10/06 07:28:53;;;;;;;5.03;2.42;;;;;;;14.88;44.20;102137.88;5031840;28;20041;-83
2023/10/06 07:31:21;;;;;;;7.10;2.65;;;;;;;14.84;44.27;102133.66;5032898;28;20071;-82
2023/10/06 07:33:51;;;;;;;4.68;2.90;;;;;;;14.80;44.35;102126.66;5033198;28;20069;-83
2023/10/06 07:36:20;;;;;;;4.82;2.30;;;;;;;14.77;44.16;102137.91;5038834;28;20045;-82
2023/10/06 07:38:50;;;;;;;5.25;2.28;;;;;;;14.72;44.38;102127.31;5037862;28;20053;-83
2023/10/06 07:41:18;;;;;;;6.40;2.45;;;;;;;14.68;44.54;102131.31;5044625;28;20046;-82
2023/10/06 07:43:48;;;;;;;5.07;2.33;;;;;;;14.63;44.37;102117.06;5039120;28;20125;-83
2023/10/06 07:46:17;;;;;;;5.28;2.55;;;;;;;14.62;44.52;102128.22;5032578;28;20053;-82
2023/10/06 07:48:46;;;;;;;4.18;2.13;;;;;;;14.59;44.78;102134.00;5038856;28;20612;-82
2023/10/06 07:51:16;;;;;;;4.32;2.33;;;;;;;14.58;44.74;102126.72;5042675;28;20048;-83
2023/10/06 07:53:44;;;;;;;5.05;2.38;;;;;;;14.56;44.98;102126.84;5036867;28;20132;-83
2023/10/06 07:56:14;;;;;;;6.38;2.47;;;;;;;14.56;45.25;102124.09;5052693;28;20132;-83
2023/10/06 07:58:43;;;;;;;4.28;2.60;;;;;;;14.56;45.08;102123.22;5055027;28;20045;-83
2023/10/06 08:01:12;;;;;;;4.10;2.65;;;;;;;14.56;45.02;102123.22;5034471;28;20045;-83
2023/10/06 08:03:42;;;;;;;5.10;2.63;;;;;;;14.57;45.12;102124.97;5052731;28;20034;-83
2023/10/06 08:06:11;;;;;;;4.95;2.17;;;;;;;14.58;45.29;102122.09;5049666;28;20053;-83
2023/10/06 08:08:39;;;;;;;4.70;2.60;;;;;;;14.59;45.54;102112.84;5053858;28;20056;-83
2023/10/06 08:11:09;;;;;;;5.13;2.60;;;;;;;14.61;45.55;102119.06;5060897;28;20049;-82
2023/10/06 08:13:38;;;;;;;6.15;2.28;;;;;;;14.64;45.32;102115.19;5051425;28;20132;-82
2023/10/06 08:16:07;;;;;;;4.93;2.40;;;;;;;14.64;45.02;102115.19;5032963;28;20049;-82
2023/10/06 08:18:35;;;;;;;4.63;2.30;;;;;;;14.67;45.64;102123.19;5049667;28;20057;-82
2023/10/06 08:21:04;;;;;;;6.13;2.67;;;;;;;14.69;45.04;102118.41;5051668;28;20073;-82
2023/10/06 08:23:32;;;;;;;5.18;2.80;;;;;;;14.70;45.30;102126.56;5033436;28;20069;-82
2023/10/06 08:26:07;;;;;;;5.05;2.58;;;;;;;14.73;45.73;102128.19;5041616;28;20044;-83
2023/10/06 08:28:35;;;;;;;6.78;2.40;;;;;;;14.76;45.34;102122.41;5034391;28;20044;-82
2023/10/06 08:31:04;;;;;;;5.68;2.20;;;;;;;14.81;45.37;102122.88;5032515;28;20480;-83
2023/10/06 08:33:35;;;;;;;4.03;2.00;;;;;;;14.82;45.90;102119.13;5032408;28;20049;-83
2023/10/06 08:36:08;;;;;;;4.90;2.78;;;;;;;14.86;45.78;102123.34;5033940;28;20053;-82
2023/10/06 08:38:36;;;;;;;4.78;2.53;;;;;;;14.87;45.79;102125.09;5050923;28;20056;-82
2023/10/06 08:41:07;;;;;;;4.95;2.53;;;;;;;14.97;45.75;102128.84;5033837;28;20181;-82
2023/10/06 08:43:38;;;;;;;5.13;2.38;;;;;;;15.03;45.68;102124.66;5035855;28;20854;-82
2023/10/06 08:46:08;;;;;;;3.92;2.10;;;;;;;15.06;45.41;102124.41;5034401;28;20175;-83
2023/10/06 08:48:38;;;;;;;4.80;2.13;;;;;;;15.14;45.60;102121.84;5038150;28;20136;-82
2023/10/06 08:51:10;;;;;;;7.15;2.10;;;;;;;15.21;45.93;102122.19;5035857;28;20053;-82
2023/10/06 08:53:41;;;;;;;4.10;2.17;;;;;;;15.27;45.96;102117.00;5039067;28;20129;-83
2023/10/06 08:56:13;;;;;;;4.63;2.13;;;;;;;15.33;45.55;102130.28;5040531;28;20114;-83
2023/10/06 08:58:41;;;;;;;4.80;2.40;;;;;;;15.40;45.37;102128.75;5045167;28;20045;-83
2023/10/06 09:01:14;;;;;;;4.10;2.17;;;;;;;15.49;45.66;102125.19;5046109;28;20493;-82
2023/10/06 09:03:42;;;;;;;5.85;2.25;;;;;;;15.54;45.63;102134.94;5049010;28;20420;-83
2023/10/06 09:06:11;;;;;;;5.78;2.40;;;;;;;15.64;45.60;102120.19;5036236;28;20080;-83
2023/10/06 09:08:42;;;;;;;4.30;1.95;;;;;;;15.76;45.88;102129.22;5034639;28;20095;-83
2023/10/06 09:11:11;;;;;;;4.28;2.10;;;;;;;15.83;45.65;102123.06;5039996;28;20290;-84
2023/10/06 09:13:41;;;;;;;4.60;2.00;;;;;;;15.92;45.53;102112.19;5037683;28;20041;-84
2023/10/06 09:16:11;;;;;;;5.68;2.45;;;;;;;16.02;45.44;102104.78;5039000;28;20072;-83
2023/10/06 09:18:40;;;;;;;5.50;2.10;;;;;;;16.11;45.26;102115.00;5037793;28;20583;-84
2023/10/06 09:21:15;;;;;;;3.97;2.08;;;;;;;16.22;44.94;102120.47;5037868;28;20045;-84
2023/10/06 09:23:44;;;;;;;4.70;1.95;;;;;;;16.28;45.26;102114.38;5048226;28;20050;-84
2023/10/06 09:26:15;;;;;;;4.93;2.10;;;;;;;16.38;44.83;102108.88;5044462;28;20099;-84
2023/10/06 09:28:51;;;;;;;4.50;2.30;;;;;;;16.50;44.39;102125.16;5037950;28;20480;-83
2023/10/06 09:31:36;;;;;;;6.22;2.10;;;;;;;16.58;44.24;102117.03;5032687;28;20053;-83
2023/10/06 09:34:07;;;;;;;4.40;1.85;;;;;;;16.64;44.54;102119.25;5050657;28;20102;-83
2023/10/06 09:36:36;;;;;;;6.78;2.30;;;;;;;16.75;44.61;102114.56;5043004;28;20041;-83
2023/10/06 09:39:13;;;;;;;5.28;1.98;;;;;;;16.86;44.26;102104.25;5034137;28;20095;-83
2023/10/06 09:41:42;;;;;;;6.65;2.35;;;;;;;16.97;44.30;102112.47;5038884;28;20138;-84
2023/10/06 09:44:12;;;;;;;3.63;1.85;;;;;;;17.07;43.87;102109.69;5048749;28;20497;-83
2023/10/06 09:46:42;;;;;;;3.88;1.88;;;;;;;17.15;43.93;102112.59;5051319;28;20058;-83
2023/10/06 09:49:15;;;;;;;5.57;2.00;;;;;;;17.26;42.93;102106.88;5049828;28;20038;-83
2023/10/06 09:51:45;;;;;;;4.72;2.00;;;;;;;17.32;43.42;102106.28;5032913;28;20174;-83
2023/10/06 09:54:15;;;;;;;4.65;1.67;;;;;;;17.40;43.30;102103.66;5030120;28;20053;-83
2023/10/06 09:56:43;;;;;;;4.53;1.80;;;;;;;17.49;43.17;102101.00;5029357;28;20049;-83
2023/10/06 09:59:13;;;;;;;4.45;2.28;;;;;;;17.58;42.86;102102.88;5033239;28;20095;-83
2023/10/06 10:01:45;;;;;;;4.20;1.88;;;;;;;17.67;42.48;102099.22;5031684;28;20064;-83
2023/10/06 10:04:15;;;;;;;3.78;1.77;;;;;;;17.71;43.16;102089.59;5031775;28;20050;-83
2023/10/06 10:06:44;;;;;;;5.28;2.08;;;;;;;17.82;42.44;102085.78;5048574;28;20073;-83
2023/10/06 10:09:16;;;;;;;4.32;1.90;;;;;;;17.90;42.44;102085.88;5034574;28;20053;-82
2023/10/06 10:11:51;;;;;;;4.70;1.95;;;;;;;17.96;41.86;102085.28;5029312;28;20127;-83
2023/10/06 10:14:39;;;;;;;5.75;1.80;;;;;;;18.06;41.50;102077.81;5031533;28;20059;-83
2023/10/06 10:17:18;;;;;;;3.90;1.75;;;;;;;18.13;40.81;102079.81;5032572;28;20052;-83
2023/10/06 10:19:49;;;;;;;4.63;2.10;;;;;;;18.19;41.70;102081.06;5028878;28;20170;-83
2023/10/06 10:22:18;;;;;;;3.80;1.63;;;;;;;18.24;41.13;102075.94;5031634;28;20045;-83
2023/10/06 10:24:46;;;;;;;6.30;2.22;;;;;;;18.30;40.93;102086.41;5032706;28;20060;-83
2023/10/06 10:27:20;;;;;;;7.00;2.10;;;;;;;18.35;40.90;102075.72;5037324;28;20049;-84
2023/10/06 10:29:49;;;;;;;4.13;1.90;;;;;;;18.41;40.78;102063.13;5040322;28;20045;-83
2023/10/06 10:32:22;;;;;;;5.25;1.90;;;;;;;18.47;40.79;102062.53;5062750;28;20100;-83
2023/10/06 10:35:08;;;;;;;4.60;1.80;;;;;;;18.51;39.58;102063.97;5032604;28;20049;-83
2023/10/06 10:37:58;;;;;;;4.82;1.75;;;;;;;18.53;39.90;102056.38;5030922;28;20550;-83
2023/10/06 10:40:46;;;;;;;3.88;1.80;;;;;;;18.59;39.62;102050.19;5033278;28;20041;-83
2023/10/06 10:43:16;;;;;;;3.78;1.77;;;;;;;18.63;40.22;102059.06;5034401;28;20059;-84
2023/10/06 10:45:47;;;;;;;4.43;1.83;;;;;;;18.70;39.64;102051.88;5039864;28;20057;-83
2023/10/06 10:48:18;;;;;;;5.43;2.33;;;;;;;18.75;40.05;102044.78;5047800;28;20056;-82
2023/10/06 10:51:10;;;;;;;4.82;1.98;;;;;;;18.77;39.11;102050.19;5049564;28;20064;-83
2023/10/06 10:53:41;;;;;;;6.03;1.90;;;;;;;18.79;39.59;102053.69;5028354;28;20053;-83
2023/10/06 10:56:14;;;;;;;5.75;2.17;;;;;;;18.85;38.84;102045.59;5032163;28;20139;-83
2023/10/06 10:58:58;;;;;;;5.25;2.13;;;;;;;18.87;39.23;102048.22;5029456;28;20114;-83
2023/10/06 11:01:29;;;;;;;3.95;1.83;;;;;;;18.90;39.71;102040.41;5030609;28;20884;-83
2023/10/06 11:04:31;;;;;;;4.65;1.70;;;;;;;18.94;38.56;102040.13;5048822;28;20140;-83
2023/10/06 11:07:09;;;;;;;4.72;2.10;;;;;;;18.97;39.18;102035.09;5032754;28;20045;-83
2023/10/06 11:09:40;;;;;;;4.97;1.90;;;;;;;19.00;39.08;102036.69;5036200;28;20393;-83
2023/10/06 11:12:25;;;;;;;4.15;1.70;;;;;;;19.06;38.09;102025.81;5050446;28;20696;-83
2023/10/06 11:15:02;;;;;;;3.47;1.80;;;;;;;19.08;38.90;102023.75;5035808;28;20795;-83
2023/10/06 11:17:32;;;;;;;4.63;1.67;;;;;;;19.14;38.30;102030.53;5037120;28;20248;-84
2023/10/06 11:20:12;;;;;;;5.70;2.13;;;;;;;19.18;38.41;102029.19;5040607;28;20052;-83
2023/10/06 11:22:42;;;;;;;3.78;1.55;;;;;;;19.18;38.34;102024.53;5042637;28;20068;-83
2023/10/06 11:25:11;;;;;;;4.15;1.90;;;;;;;19.22;38.48;102023.19;5052715;28;20057;-84
2023/10/06 11:27:39;;;;;;;4.60;1.95;;;;;;;19.26;38.17;102024.59;5056557;28;20087;-84
2023/10/06 11:30:14;;;;;;;4.50;2.00;;;;;;;19.32;37.24;102019.44;5048273;28;20280;-84
2023/10/06 11:32:42;;;;;;;4.85;1.90;;;;;;;19.33;37.88;102021.16;5038366;28;20076;-84
2023/10/06 11:35:13;;;;;;;4.13;1.92;;;;;;;19.39;37.35;102020.50;5036441;28;20041;-84
2023/10/06 11:37:42;;;;;;;5.28;2.22;;;;;;;19.40;37.80;102017.56;5032419;28;20045;-84
2023/10/06 11:40:12;;;;;;;4.85;1.95;;;;;;;19.43;37.54;102011.69;5037074;28;20048;-84
2023/10/06 11:42:41;;;;;;;5.60;1.90;;;;;;;19.47;37.62;102009.44;5033178;28;20083;-84